sensor_id;sensor_type;location;lat;lon;timestamp;P1;durP1;ratioP1;P2;durP2;ratioP2
25467;SDS011;13384;24.794;110.498;2022-12-07T00:00:12;20.35;;;10.75;;
25467;SDS011;13384;24.794;110.498;2022-12-07T00:02:43;21.05;;;11.82;;
25467;SDS011;13384;24.794;110.498;2022-12-07T00:05:15;19.58;;;10.45;;
25467;SDS011;13384;24.794;110.498;2022-12-07T00:07:46;18.55;;;10.70;;
25467;SDS011;13384;24.794;110.498;2022-12-07T00:10:29;18.52;;;11.10;;
25467;SDS011;13384;24.794;110.498;2022-12-07T00:12:59;19.77;;;10.57;;
25467;SDS011;13384;24.794;110.498;2022-12-07T00:15:30;16.80;;;9.85;;
25467;SDS011;13384;24.794;110.498;2022-12-07T00:18:04;20.50;;;11.00;;
25467;SDS011;13384;24.794;110.498;2022-12-07T00:20:35;19.33;;;10.75;;
25467;SDS011;13384;24.794;110.498;2022-12-07T00:23:06;19.67;;;10.63;;
25467;SDS011;13384;24.794;110.498;2022-12-07T00:25:36;18.42;;;10.60;;
25467;SDS011;13384;24.794;110.498;2022-12-07T00:28:07;16.88;;;9.90;;
25467;SDS011;13384;24.794;110.498;2022-12-07T00:30:39;19.67;;;10.35;;
25467;SDS011;13384;24.794;110.498;2022-12-07T00:33:10;19.10;;;10.73;;
25467;SDS011;13384;24.794;110.498;2022-12-07T00:35:40;18.30;;;9.82;;
25467;SDS011;13384;24.794;110.498;2022-12-07T00:38:10;17.40;;;10.23;;
25467;SDS011;13384;24.794;110.498;2022-12-07T00:40:41;17.30;;;10.15;;
25467;SDS011;13384;24.794;110.498;2022-12-07T00:43:12;18.33;;;10.38;;
25467;SDS011;13384;24.794;110.498;2022-12-07T00:45:44;19.88;;;10.38;;
25467;SDS011;13384;24.794;110.498;2022-12-07T00:48:15;19.92;;;11.15;;
25467;SDS011;13384;24.794;110.498;2022-12-07T00:50:45;18.83;;;10.25;;
25467;SDS011;13384;24.794;110.498;2022-12-07T00:53:16;17.65;;;10.32;;
25467;SDS011;13384;24.794;110.498;2022-12-07T00:55:47;19.80;;;10.82;;
25467;SDS011;13384;24.794;110.498;2022-12-07T00:58:18;17.55;;;10.27;;
25467;SDS011;13384;24.794;110.498;2022-12-07T01:00:49;18.10;;;9.52;;
25467;SDS011;13384;24.794;110.498;2022-12-07T01:03:20;17.45;;;10.25;;
25467;SDS011;13384;24.794;110.498;2022-12-07T01:05:51;18.25;;;10.43;;
25467;SDS011;13384;24.794;110.498;2022-12-07T01:08:24;17.15;;;10.23;;
25467;SDS011;13384;24.794;110.498;2022-12-07T01:11:00;20.02;;;10.63;;
25467;SDS011;13384;24.794;110.498;2022-12-07T01:13:34;19.73;;;10.70;;
25467;SDS011;13384;24.794;110.498;2022-12-07T01:16:09;20.30;;;11.20;;
25467;SDS011;13384;24.794;110.498;2022-12-07T01:18:41;19.97;;;11.00;;
25467;SDS011;13384;24.794;110.498;2022-12-07T01:21:21;16.85;;;9.90;;
25467;SDS011;13384;24.794;110.498;2022-12-07T01:23:54;18.58;;;10.45;;
25467;SDS011;13384;24.794;110.498;2022-12-07T01:26:26;19.52;;;10.48;;
25467;SDS011;13384;24.794;110.498;2022-12-07T01:28:57;18.15;;;9.48;;
25467;SDS011;13384;24.794;110.498;2022-12-07T01:31:29;19.52;;;10.60;;
25467;SDS011;13384;24.794;110.498;2022-12-07T01:34:00;17.90;;;10.02;;
25467;SDS011;13384;24.794;110.498;2022-12-07T01:36:35;18.00;;;10.15;;
25467;SDS011;13384;24.794;110.498;2022-12-07T01:39:09;16.50;;;9.63;;
25467;SDS011;13384;24.794;110.498;2022-12-07T01:41:41;18.90;;;10.02;;
25467;SDS011;13384;24.794;110.498;2022-12-07T01:44:29;19.05;;;9.70;;
25467;SDS011;13384;24.794;110.498;2022-12-07T01:47:03;17.10;;;10.38;;
25467;SDS011;13384;24.794;110.498;2022-12-07T01:54:57;21.27;;;10.52;;
25467;SDS011;13384;24.794;110.498;2022-12-07T02:00:04;16.17;;;9.05;;
25467;SDS011;13384;24.794;110.498;2022-12-07T02:02:43;22.17;;;10.35;;
25467;SDS011;13384;24.794;110.498;2022-12-07T02:05:22;19.83;;;10.57;;
25467;SDS011;13384;24.794;110.498;2022-12-07T02:07:57;18.30;;;10.07;;
25467;SDS011;13384;24.794;110.498;2022-12-07T02:10:48;17.65;;;9.77;;
25467;SDS011;13384;24.794;110.498;2022-12-07T02:13:25;16.55;;;9.75;;
25467;SDS011;13384;24.794;110.498;2022-12-07T02:28:21;20.85;;;10.00;;
25467;SDS011;13384;24.794;110.498;2022-12-07T02:31:26;19.98;;;10.05;;
25467;SDS011;13384;24.794;110.498;2022-12-07T02:36:36;17.40;;;10.05;;
25467;SDS011;13384;24.794;110.498;2022-12-07T02:41:43;20.25;;;10.23;;
25467;SDS011;13384;24.794;110.498;2022-12-07T02:44:21;20.73;;;10.63;;
25467;SDS011;13384;24.794;110.498;2022-12-07T02:47:03;17.63;;;10.68;;
25467;SDS011;13384;24.794;110.498;2022-12-07T02:49:58;19.48;;;10.60;;
25467;SDS011;13384;24.794;110.498;2022-12-07T02:52:29;18.30;;;10.02;;
25467;SDS011;13384;24.794;110.498;2022-12-07T02:55:00;16.95;;;9.40;;
25467;SDS011;13384;24.794;110.498;2022-12-07T02:57:54;19.65;;;10.23;;
25467;SDS011;13384;24.794;110.498;2022-12-07T03:04:48;21.10;;;10.45;;
25467;SDS011;13384;24.794;110.498;2022-12-07T03:12:31;19.00;;;10.32;;
25467;SDS011;13384;24.794;110.498;2022-12-07T03:15:26;22.27;;;11.57;;
25467;SDS011;13384;24.794;110.498;2022-12-07T03:18:11;23.50;;;11.02;;
25467;SDS011;13384;24.794;110.498;2022-12-07T03:20:45;17.60;;;9.60;;
25467;SDS011;13384;24.794;110.498;2022-12-07T03:23:19;17.65;;;9.88;;
25467;SDS011;13384;24.794;110.498;2022-12-07T03:25:54;15.70;;;9.13;;
25467;SDS011;13384;24.794;110.498;2022-12-07T03:28:29;21.25;;;10.73;;
25467;SDS011;13384;24.794;110.498;2022-12-07T03:36:26;19.40;;;10.13;;
25467;SDS011;13384;24.794;110.498;2022-12-07T03:39:13;29.58;;;12.20;;
25467;SDS011;13384;24.794;110.498;2022-12-07T03:41:57;19.05;;;10.80;;
25467;SDS011;13384;24.794;110.498;2022-12-07T03:44:32;17.75;;;9.55;;
25467;SDS011;13384;24.794;110.498;2022-12-07T03:47:05;18.52;;;10.73;;
25467;SDS011;13384;24.794;110.498;2022-12-07T03:49:51;17.95;;;9.75;;
25467;SDS011;13384;24.794;110.498;2022-12-07T03:52:44;20.10;;;10.25;;
25467;SDS011;13384;24.794;110.498;2022-12-07T03:55:28;16.67;;;9.77;;
25467;SDS011;13384;24.794;110.498;2022-12-07T03:58:03;21.25;;;11.60;;
25467;SDS011;13384;24.794;110.498;2022-12-07T04:00:40;23.02;;;11.90;;
25467;SDS011;13384;24.794;110.498;2022-12-07T04:03:11;20.35;;;10.38;;
25467;SDS011;13384;24.794;110.498;2022-12-07T04:05:42;21.08;;;10.25;;
25467;SDS011;13384;24.794;110.498;2022-12-07T04:08:14;19.70;;;10.70;;
25467;SDS011;13384;24.794;110.498;2022-12-07T04:10:45;16.98;;;10.10;;
25467;SDS011;13384;24.794;110.498;2022-12-07T04:13:15;20.95;;;11.07;;
25467;SDS011;13384;24.794;110.498;2022-12-07T04:16:07;18.20;;;10.48;;
25467;SDS011;13384;24.794;110.498;2022-12-07T04:18:38;19.17;;;10.00;;
25467;SDS011;13384;24.794;110.498;2022-12-07T04:21:08;17.42;;;9.38;;
25467;SDS011;13384;24.794;110.498;2022-12-07T04:23:39;18.42;;;9.75;;
25467;SDS011;13384;24.794;110.498;2022-12-07T04:26:09;18.67;;;10.05;;
25467;SDS011;13384;24.794;110.498;2022-12-07T04:28:40;17.45;;;9.18;;
25467;SDS011;13384;24.794;110.498;2022-12-07T04:31:10;19.13;;;10.10;;
25467;SDS011;13384;24.794;110.498;2022-12-07T04:33:41;17.65;;;9.68;;
25467;SDS011;13384;24.794;110.498;2022-12-07T04:36:11;17.40;;;9.18;;
25467;SDS011;13384;24.794;110.498;2022-12-07T04:39:02;18.38;;;10.23;;
25467;SDS011;13384;24.794;110.498;2022-12-07T04:41:34;17.98;;;10.00;;
25467;SDS011;13384;24.794;110.498;2022-12-07T04:44:04;18.75;;;10.38;;
25467;SDS011;13384;24.794;110.498;2022-12-07T04:46:36;19.08;;;9.88;;
25467;SDS011;13384;24.794;110.498;2022-12-07T04:49:07;17.35;;;9.05;;
25467;SDS011;13384;24.794;110.498;2022-12-07T04:51:52;19.80;;;10.52;;
25467;SDS011;13384;24.794;110.498;2022-12-07T04:54:22;17.30;;;9.35;;
25467;SDS011;13384;24.794;110.498;2022-12-07T04:56:56;17.48;;;9.27;;
25467;SDS011;13384;24.794;110.498;2022-12-07T04:59:26;18.40;;;9.63;;
25467;SDS011;13384;24.794;110.498;2022-12-07T05:02:01;18.77;;;10.35;;
25467;SDS011;13384;24.794;110.498;2022-12-07T05:04:33;19.08;;;11.02;;
25467;SDS011;13384;24.794;110.498;2022-12-07T05:07:06;19.33;;;11.40;;
25467;SDS011;13384;24.794;110.498;2022-12-07T05:09:37;18.50;;;10.27;;
25467;SDS011;13384;24.794;110.498;2022-12-07T05:12:07;19.40;;;9.57;;
25467;SDS011;13384;24.794;110.498;2022-12-07T05:14:38;18.45;;;10.38;;
25467;SDS011;13384;24.794;110.498;2022-12-07T05:17:08;22.88;;;10.88;;
25467;SDS011;13384;24.794;110.498;2022-12-07T05:19:40;18.45;;;10.75;;
25467;SDS011;13384;24.794;110.498;2022-12-07T05:22:12;17.88;;;9.65;;
25467;SDS011;13384;24.794;110.498;2022-12-07T05:24:43;18.52;;;10.38;;
25467;SDS011;13384;24.794;110.498;2022-12-07T05:27:14;17.05;;;9.90;;
25467;SDS011;13384;24.794;110.498;2022-12-07T05:29:45;17.25;;;9.27;;
25467;SDS011;13384;24.794;110.498;2022-12-07T05:32:28;18.07;;;9.80;;
25467;SDS011;13384;24.794;110.498;2022-12-07T05:34:59;15.73;;;9.27;;
25467;SDS011;13384;24.794;110.498;2022-12-07T05:37:29;19.00;;;9.88;;
25467;SDS011;13384;24.794;110.498;2022-12-07T05:40:05;15.45;;;9.05;;
25467;SDS011;13384;24.794;110.498;2022-12-07T05:42:36;17.13;;;9.70;;
25467;SDS011;13384;24.794;110.498;2022-12-07T05:45:09;17.70;;;9.68;;
25467;SDS011;13384;24.794;110.498;2022-12-07T05:47:40;17.40;;;9.38;;
25467;SDS011;13384;24.794;110.498;2022-12-07T05:50:10;15.98;;;9.70;;
25467;SDS011;13384;24.794;110.498;2022-12-07T05:52:43;25.77;;;11.27;;
25467;SDS011;13384;24.794;110.498;2022-12-07T05:55:14;16.98;;;9.98;;
25467;SDS011;13384;24.794;110.498;2022-12-07T05:57:45;22.20;;;10.38;;
25467;SDS011;13384;24.794;110.498;2022-12-07T06:00:34;21.90;;;10.23;;
25467;SDS011;13384;24.794;110.498;2022-12-07T06:03:04;19.35;;;9.85;;
25467;SDS011;13384;24.794;110.498;2022-12-07T06:05:35;20.38;;;10.27;;
25467;SDS011;13384;24.794;110.498;2022-12-07T06:08:06;18.92;;;10.15;;
25467;SDS011;13384;24.794;110.498;2022-12-07T06:10:37;18.20;;;9.35;;
25467;SDS011;13384;24.794;110.498;2022-12-07T06:13:10;20.17;;;9.98;;
25467;SDS011;13384;24.794;110.498;2022-12-07T06:15:40;18.77;;;9.83;;
25467;SDS011;13384;24.794;110.498;2022-12-07T06:18:13;15.07;;;8.63;;
25467;SDS011;13384;24.794;110.498;2022-12-07T06:20:44;17.30;;;9.75;;
25467;SDS011;13384;24.794;110.498;2022-12-07T06:23:15;17.85;;;9.15;;
25467;SDS011;13384;24.794;110.498;2022-12-07T06:25:46;17.52;;;9.57;;
25467;SDS011;13384;24.794;110.498;2022-12-07T06:28:17;17.77;;;9.55;;
25467;SDS011;13384;24.794;110.498;2022-12-07T06:30:56;19.83;;;9.88;;
25467;SDS011;13384;24.794;110.498;2022-12-07T06:33:29;17.15;;;9.57;;
25467;SDS011;13384;24.794;110.498;2022-12-07T06:36:01;15.93;;;9.57;;
25467;SDS011;13384;24.794;110.498;2022-12-07T06:38:31;20.35;;;9.80;;
25467;SDS011;13384;24.794;110.498;2022-12-07T06:41:02;18.63;;;9.23;;
25467;SDS011;13384;24.794;110.498;2022-12-07T06:43:32;17.13;;;9.35;;
25467;SDS011;13384;24.794;110.498;2022-12-07T06:46:03;14.20;;;8.70;;
25467;SDS011;13384;24.794;110.498;2022-12-07T06:48:36;20.88;;;9.98;;
25467;SDS011;13384;24.794;110.498;2022-12-07T06:51:07;16.67;;;8.65;;
25467;SDS011;13384;24.794;110.498;2022-12-07T06:53:38;16.10;;;9.23;;
25467;SDS011;13384;24.794;110.498;2022-12-07T06:56:08;16.38;;;9.55;;
25467;SDS011;13384;24.794;110.498;2022-12-07T06:58:40;18.67;;;8.73;;
25467;SDS011;13384;24.794;110.498;2022-12-07T07:01:11;20.10;;;8.93;;
25467;SDS011;13384;24.794;110.498;2022-12-07T07:03:43;16.55;;;9.68;;
25467;SDS011;13384;24.794;110.498;2022-12-07T07:06:15;13.88;;;8.23;;
25467;SDS011;13384;24.794;110.498;2022-12-07T07:08:46;19.20;;;9.00;;
25467;SDS011;13384;24.794;110.498;2022-12-07T07:11:16;17.55;;;9.57;;
25467;SDS011;13384;24.794;110.498;2022-12-07T07:13:47;15.82;;;8.68;;
25467;SDS011;13384;24.794;110.498;2022-12-07T07:16:22;19.17;;;9.10;;
25467;SDS011;13384;24.794;110.498;2022-12-07T07:18:53;17.25;;;9.35;;
25467;SDS011;13384;24.794;110.498;2022-12-07T07:21:25;16.50;;;9.02;;
25467;SDS011;13384;24.794;110.498;2022-12-07T07:23:56;16.00;;;9.13;;
25467;SDS011;13384;24.794;110.498;2022-12-07T07:26:27;17.17;;;9.25;;
25467;SDS011;13384;24.794;110.498;2022-12-07T07:28:58;18.67;;;8.73;;
25467;SDS011;13384;24.794;110.498;2022-12-07T07:31:30;16.58;;;9.27;;
25467;SDS011;13384;24.794;110.498;2022-12-07T07:34:03;18.63;;;9.77;;
25467;SDS011;13384;24.794;110.498;2022-12-07T07:36:34;19.42;;;9.77;;
25467;SDS011;13384;24.794;110.498;2022-12-07T07:39:05;18.45;;;9.43;;
25467;SDS011;13384;24.794;110.498;2022-12-07T07:41:35;15.77;;;9.30;;
25467;SDS011;13384;24.794;110.498;2022-12-07T07:44:12;20.83;;;11.27;;
25467;SDS011;13384;24.794;110.498;2022-12-07T07:46:45;21.15;;;11.35;;
25467;SDS011;13384;24.794;110.498;2022-12-07T07:49:36;22.90;;;11.00;;
25467;SDS011;13384;24.794;110.498;2022-12-07T07:52:14;25.67;;;13.07;;
25467;SDS011;13384;24.794;110.498;2022-12-07T07:54:44;21.33;;;11.88;;
25467;SDS011;13384;24.794;110.498;2022-12-07T07:57:16;22.23;;;10.85;;
25467;SDS011;13384;24.794;110.498;2022-12-07T07:59:49;27.17;;;13.17;;
25467;SDS011;13384;24.794;110.498;2022-12-07T08:02:20;25.20;;;11.80;;
25467;SDS011;13384;24.794;110.498;2022-12-07T08:04:52;19.98;;;10.70;;
25467;SDS011;13384;24.794;110.498;2022-12-07T08:07:24;22.25;;;12.13;;
25467;SDS011;13384;24.794;110.498;2022-12-07T08:10:09;25.90;;;12.73;;
25467;SDS011;13384;24.794;110.498;2022-12-07T08:12:42;23.70;;;11.63;;
25467;SDS011;13384;24.794;110.498;2022-12-07T08:15:32;21.20;;;11.18;;
25467;SDS011;13384;24.794;110.498;2022-12-07T08:18:05;26.60;;;13.20;;
25467;SDS011;13384;24.794;110.498;2022-12-07T08:20:37;22.05;;;10.20;;
25467;SDS011;13384;24.794;110.498;2022-12-07T08:23:11;27.35;;;13.85;;
25467;SDS011;13384;24.794;110.498;2022-12-07T08:25:43;19.17;;;10.52;;
25467;SDS011;13384;24.794;110.498;2022-12-07T08:28:15;25.25;;;13.13;;
25467;SDS011;13384;24.794;110.498;2022-12-07T08:30:46;29.45;;;13.82;;
25467;SDS011;13384;24.794;110.498;2022-12-07T08:36:02;25.30;;;13.40;;
25467;SDS011;13384;24.794;110.498;2022-12-07T08:38:39;22.92;;;12.25;;
25467;SDS011;13384;24.794;110.498;2022-12-07T08:41:30;25.33;;;12.45;;
25467;SDS011;13384;24.794;110.498;2022-12-07T08:44:01;23.65;;;12.02;;
25467;SDS011;13384;24.794;110.498;2022-12-07T08:49:52;23.95;;;10.70;;
25467;SDS011;13384;24.794;110.498;2022-12-07T08:52:27;20.42;;;11.05;;
25467;SDS011;13384;24.794;110.498;2022-12-07T08:54:58;21.67;;;11.32;;
25467;SDS011;13384;24.794;110.498;2022-12-07T08:57:31;19.48;;;10.77;;
25467;SDS011;13384;24.794;110.498;2022-12-07T09:00:05;21.63;;;10.90;;
25467;SDS011;13384;24.794;110.498;2022-12-07T09:02:37;22.38;;;13.50;;
25467;SDS011;13384;24.794;110.498;2022-12-07T09:05:08;21.30;;;12.35;;
25467;SDS011;13384;24.794;110.498;2022-12-07T09:07:43;22.70;;;11.27;;
25467;SDS011;13384;24.794;110.498;2022-12-07T09:10:17;21.52;;;12.10;;
25467;SDS011;13384;24.794;110.498;2022-12-07T09:13:00;21.95;;;11.85;;
25467;SDS011;13384;24.794;110.498;2022-12-07T09:15:31;24.63;;;12.55;;
25467;SDS011;13384;24.794;110.498;2022-12-07T09:18:02;21.08;;;11.02;;
25467;SDS011;13384;24.794;110.498;2022-12-07T09:20:33;23.23;;;12.07;;
25467;SDS011;13384;24.794;110.498;2022-12-07T09:23:05;24.23;;;11.85;;
25467;SDS011;13384;24.794;110.498;2022-12-07T09:25:36;24.00;;;11.57;;
25467;SDS011;13384;24.794;110.498;2022-12-07T09:28:08;20.30;;;12.15;;
25467;SDS011;13384;24.794;110.498;2022-12-07T09:30:49;17.65;;;10.20;;
25467;SDS011;13384;24.794;110.498;2022-12-07T09:33:41;21.08;;;11.85;;
25467;SDS011;13384;24.794;110.498;2022-12-07T09:36:12;22.73;;;12.90;;
25467;SDS011;13384;24.794;110.498;2022-12-07T09:38:43;21.30;;;11.73;;
25467;SDS011;13384;24.794;110.498;2022-12-07T09:41:17;20.45;;;12.00;;
25467;SDS011;13384;24.794;110.498;2022-12-07T09:43:49;17.23;;;11.00;;
25467;SDS011;13384;24.794;110.498;2022-12-07T09:46:20;23.02;;;11.73;;
25467;SDS011;13384;24.794;110.498;2022-12-07T09:48:51;31.35;;;17.35;;
25467;SDS011;13384;24.794;110.498;2022-12-07T09:51:22;29.38;;;15.90;;
25467;SDS011;13384;24.794;110.498;2022-12-07T09:53:56;27.98;;;14.82;;
25467;SDS011;13384;24.794;110.498;2022-12-07T09:56:32;21.45;;;12.15;;
25467;SDS011;13384;24.794;110.498;2022-12-07T09:59:03;24.23;;;14.10;;
25467;SDS011;13384;24.794;110.498;2022-12-07T10:01:34;24.33;;;14.68;;
25467;SDS011;13384;24.794;110.498;2022-12-07T10:06:45;26.55;;;14.02;;
25467;SDS011;13384;24.794;110.498;2022-12-07T10:09:18;25.55;;;14.15;;
25467;SDS011;13384;24.794;110.498;2022-12-07T10:14:39;29.25;;;16.77;;
25467;SDS011;13384;24.794;110.498;2022-12-07T10:23:01;28.48;;;15.63;;
25467;SDS011;13384;24.794;110.498;2022-12-07T10:25:34;25.33;;;14.88;;
25467;SDS011;13384;24.794;110.498;2022-12-07T10:30:52;25.63;;;14.65;;
25467;SDS011;13384;24.794;110.498;2022-12-07T10:33:55;23.67;;;13.48;;
25467;SDS011;13384;24.794;110.498;2022-12-07T10:36:37;26.70;;;15.00;;
25467;SDS011;13384;24.794;110.498;2022-12-07T10:42:00;24.95;;;14.27;;
25467;SDS011;13384;24.794;110.498;2022-12-07T10:44:32;25.70;;;14.68;;
25467;SDS011;13384;24.794;110.498;2022-12-07T11:00:35;21.88;;;13.18;;
25467;SDS011;13384;24.794;110.498;2022-12-07T11:08:56;24.58;;;12.95;;
25467;SDS011;13384;24.794;110.498;2022-12-07T11:22:59;26.05;;;14.27;;
25467;SDS011;13384;24.794;110.498;2022-12-07T11:37:34;25.15;;;14.48;;
25467;SDS011;13384;24.794;110.498;2022-12-07T11:43:06;23.02;;;13.32;;
25467;SDS011;13384;24.794;110.498;2022-12-07T11:46:14;28.65;;;15.68;;
25467;SDS011;13384;24.794;110.498;2022-12-07T11:52:20;22.60;;;13.70;;
25467;SDS011;13384;24.794;110.498;2022-12-07T11:54:59;22.92;;;13.15;;
25467;SDS011;13384;24.794;110.498;2022-12-07T11:57:39;22.80;;;13.82;;
25467;SDS011;13384;24.794;110.498;2022-12-07T12:00:15;26.27;;;14.30;;
25467;SDS011;13384;24.794;110.498;2022-12-07T12:06:03;23.42;;;13.07;;
25467;SDS011;13384;24.794;110.498;2022-12-07T12:08:45;21.88;;;13.18;;
25467;SDS011;13384;24.794;110.498;2022-12-07T12:25:51;22.30;;;12.73;;
25467;SDS011;13384;24.794;110.498;2022-12-07T12:31:40;20.30;;;12.35;;
25467;SDS011;13384;24.794;110.498;2022-12-07T12:34:30;22.77;;;13.55;;
25467;SDS011;13384;24.794;110.498;2022-12-07T12:42:51;21.08;;;13.15;;
25467;SDS011;13384;24.794;110.498;2022-12-07T12:45:29;23.52;;;13.40;;
25467;SDS011;13384;24.794;110.498;2022-12-07T12:51:44;22.10;;;13.52;;
25467;SDS011;13384;24.794;110.498;2022-12-07T12:54:11;23.38;;;13.38;;
25467;SDS011;13384;24.794;110.498;2022-12-07T12:59:41;24.52;;;14.02;;
25467;SDS011;13384;24.794;110.498;2022-12-07T13:04:53;23.38;;;14.07;;
25467;SDS011;13384;24.794;110.498;2022-12-07T13:07:59;21.35;;;12.65;;
25467;SDS011;13384;24.794;110.498;2022-12-07T13:21:02;20.23;;;11.95;;
25467;SDS011;13384;24.794;110.498;2022-12-07T13:34:39;22.10;;;12.10;;
25467;SDS011;13384;24.794;110.498;2022-12-07T13:37:26;20.85;;;12.88;;
25467;SDS011;13384;24.794;110.498;2022-12-07T13:42:56;20.80;;;12.15;;
25467;SDS011;13384;24.794;110.498;2022-12-07T13:45:30;21.98;;;12.40;;
25467;SDS011;13384;24.794;110.498;2022-12-07T13:51:15;20.85;;;12.27;;
25467;SDS011;13384;24.794;110.498;2022-12-07T13:54:12;21.13;;;12.00;;
25467;SDS011;13384;24.794;110.498;2022-12-07T13:56:46;20.38;;;12.10;;
25467;SDS011;13384;24.794;110.498;2022-12-07T13:59:21;20.73;;;11.65;;
25467;SDS011;13384;24.794;110.498;2022-12-07T14:01:53;21.10;;;11.95;;
25467;SDS011;13384;24.794;110.498;2022-12-07T14:07:20;20.17;;;11.80;;
25467;SDS011;13384;24.794;110.498;2022-12-07T14:12:31;21.35;;;12.20;;
25467;SDS011;13384;24.794;110.498;2022-12-07T14:15:19;19.48;;;11.73;;
25467;SDS011;13384;24.794;110.498;2022-12-07T14:17:57;17.75;;;11.02;;
25467;SDS011;13384;24.794;110.498;2022-12-07T14:20:38;21.63;;;12.45;;
25467;SDS011;13384;24.794;110.498;2022-12-07T14:23:22;18.10;;;11.88;;
25467;SDS011;13384;24.794;110.498;2022-12-07T14:26:07;18.20;;;10.55;;
25467;SDS011;13384;24.794;110.498;2022-12-07T14:28:44;18.80;;;12.00;;
25467;SDS011;13384;24.794;110.498;2022-12-07T14:31:21;20.73;;;11.65;;
25467;SDS011;13384;24.794;110.498;2022-12-07T14:34:00;20.63;;;12.32;;
25467;SDS011;13384;24.794;110.498;2022-12-07T14:36:31;19.85;;;11.38;;
25467;SDS011;13384;24.794;110.498;2022-12-07T14:39:01;20.48;;;11.82;;
25467;SDS011;13384;24.794;110.498;2022-12-07T14:41:41;19.20;;;11.88;;
25467;SDS011;13384;24.794;110.498;2022-12-07T14:44:22;20.30;;;12.88;;
25467;SDS011;13384;24.794;110.498;2022-12-07T14:47:02;21.25;;;12.02;;
25467;SDS011;13384;24.794;110.498;2022-12-07T14:49:53;18.70;;;11.10;;
25467;SDS011;13384;24.794;110.498;2022-12-07T14:52:29;19.75;;;11.90;;
25467;SDS011;13384;24.794;110.498;2022-12-07T14:55:26;21.05;;;12.30;;
25467;SDS011;13384;24.794;110.498;2022-12-07T14:57:59;21.23;;;12.55;;
25467;SDS011;13384;24.794;110.498;2022-12-07T15:00:30;16.63;;;10.73;;
25467;SDS011;13384;24.794;110.498;2022-12-07T15:03:02;19.67;;;12.15;;
25467;SDS011;13384;24.794;110.498;2022-12-07T15:05:33;19.35;;;10.73;;
25467;SDS011;13384;24.794;110.498;2022-12-07T15:08:05;19.73;;;11.93;;
25467;SDS011;13384;24.794;110.498;2022-12-07T15:10:38;19.60;;;11.40;;
25467;SDS011;13384;24.794;110.498;2022-12-07T15:13:09;21.60;;;12.13;;
25467;SDS011;13384;24.794;110.498;2022-12-07T15:15:58;20.17;;;11.75;;
25467;SDS011;13384;24.794;110.498;2022-12-07T15:18:29;21.48;;;12.30;;
25467;SDS011;13384;24.794;110.498;2022-12-07T15:21:00;20.98;;;12.23;;
25467;SDS011;13384;24.794;110.498;2022-12-07T15:23:35;19.80;;;12.02;;
25467;SDS011;13384;24.794;110.498;2022-12-07T15:26:09;21.05;;;12.13;;
25467;SDS011;13384;24.794;110.498;2022-12-07T15:28:40;21.00;;;12.38;;
25467;SDS011;13384;24.794;110.498;2022-12-07T15:31:11;19.52;;;11.32;;
25467;SDS011;13384;24.794;110.498;2022-12-07T15:34:05;20.40;;;12.15;;
25467;SDS011;13384;24.794;110.498;2022-12-07T15:36:36;24.27;;;12.77;;
25467;SDS011;13384;24.794;110.498;2022-12-07T15:39:07;24.17;;;12.60;;
25467;SDS011;13384;24.794;110.498;2022-12-07T15:41:41;19.50;;;11.63;;
25467;SDS011;13384;24.794;110.498;2022-12-07T15:44:32;21.42;;;12.32;;
25467;SDS011;13384;24.794;110.498;2022-12-07T15:47:20;21.10;;;12.23;;
25467;SDS011;13384;24.794;110.498;2022-12-07T15:49:56;22.45;;;11.77;;
25467;SDS011;13384;24.794;110.498;2022-12-07T15:52:27;20.75;;;11.80;;
25467;SDS011;13384;24.794;110.498;2022-12-07T15:54:59;22.23;;;12.68;;
25467;SDS011;13384;24.794;110.498;2022-12-07T15:57:32;19.00;;;11.07;;
25467;SDS011;13384;24.794;110.498;2022-12-07T16:00:06;18.37;;;11.13;;
25467;SDS011;13384;24.794;110.498;2022-12-07T16:02:38;18.75;;;11.23;;
25467;SDS011;13384;24.794;110.498;2022-12-07T16:05:08;19.20;;;11.38;;
25467;SDS011;13384;24.794;110.498;2022-12-07T16:07:40;18.85;;;11.20;;
25467;SDS011;13384;24.794;110.498;2022-12-07T16:10:10;20.65;;;11.95;;
25467;SDS011;13384;24.794;110.498;2022-12-07T16:12:49;17.92;;;11.02;;
25467;SDS011;13384;24.794;110.498;2022-12-07T16:15:41;21.50;;;12.75;;
25467;SDS011;13384;24.794;110.498;2022-12-07T16:18:15;22.50;;;11.95;;
25467;SDS011;13384;24.794;110.498;2022-12-07T16:20:51;19.25;;;11.25;;
25467;SDS011;13384;24.794;110.498;2022-12-07T16:23:23;19.95;;;11.20;;
25467;SDS011;13384;24.794;110.498;2022-12-07T16:25:55;20.33;;;11.50;;
25467;SDS011;13384;24.794;110.498;2022-12-07T16:28:35;19.98;;;11.52;;
25467;SDS011;13384;24.794;110.498;2022-12-07T16:31:10;21.02;;;12.50;;
25467;SDS011;13384;24.794;110.498;2022-12-07T16:33:44;19.70;;;11.40;;
25467;SDS011;13384;24.794;110.498;2022-12-07T16:36:15;19.17;;;11.93;;
25467;SDS011;13384;24.794;110.498;2022-12-07T16:39:06;21.10;;;11.45;;
25467;SDS011;13384;24.794;110.498;2022-12-07T16:41:38;21.55;;;11.98;;
25467;SDS011;13384;24.794;110.498;2022-12-07T16:44:09;20.80;;;11.80;;
25467;SDS011;13384;24.794;110.498;2022-12-07T16:46:49;20.05;;;10.85;;
25467;SDS011;13384;24.794;110.498;2022-12-07T16:49:20;21.30;;;11.80;;
25467;SDS011;13384;24.794;110.498;2022-12-07T16:51:55;19.42;;;11.73;;
25467;SDS011;13384;24.794;110.498;2022-12-07T16:54:46;21.50;;;12.18;;
25467;SDS011;13384;24.794;110.498;2022-12-07T16:57:18;21.10;;;11.73;;
25467;SDS011;13384;24.794;110.498;2022-12-07T16:59:51;22.27;;;11.17;;
25467;SDS011;13384;24.794;110.498;2022-12-07T17:02:22;19.73;;;11.98;;
25467;SDS011;13384;24.794;110.498;2022-12-07T17:05:13;20.20;;;11.73;;
25467;SDS011;13384;24.794;110.498;2022-12-07T17:07:44;19.17;;;11.77;;
25467;SDS011;13384;24.794;110.498;2022-12-07T17:10:14;22.42;;;11.25;;
25467;SDS011;13384;24.794;110.498;2022-12-07T17:12:48;18.95;;;10.50;;
25467;SDS011;13384;24.794;110.498;2022-12-07T17:15:19;20.73;;;11.60;;
25467;SDS011;13384;24.794;110.498;2022-12-07T17:17:54;18.40;;;10.88;;
25467;SDS011;13384;24.794;110.498;2022-12-07T17:20:27;18.20;;;11.23;;
25467;SDS011;13384;24.794;110.498;2022-12-07T17:23:03;19.23;;;10.23;;
25467;SDS011;13384;24.794;110.498;2022-12-07T17:25:33;17.60;;;10.80;;
25467;SDS011;13384;24.794;110.498;2022-12-07T17:28:03;21.10;;;11.48;;
25467;SDS011;13384;24.794;110.498;2022-12-07T17:30:34;18.25;;;11.25;;
25467;SDS011;13384;24.794;110.498;2022-12-07T17:33:06;18.23;;;11.07;;
25467;SDS011;13384;24.794;110.498;2022-12-07T17:35:37;19.63;;;10.73;;
25467;SDS011;13384;24.794;110.498;2022-12-07T17:38:10;18.63;;;10.93;;
25467;SDS011;13384;24.794;110.498;2022-12-07T17:43:18;18.60;;;10.40;;
25467;SDS011;13384;24.794;110.498;2022-12-07T17:45:49;17.55;;;10.52;;